Decoded Metar for KGPH ( in ) (IATA:) | Meteo·Mobile Aviation Weather
aviador You're here:

KGPH Decoded Metar

in
Report Time2019-04-21 00:35:00
UTC Time2019-04-21 00:33:04
Flight Rules vfr VFR
Wind170° at 03 kt
W.Decomp.*RWY 18: 3.0 kt HW 0.5 kt LCW
Visibility9999 m
Phenomena:N/A
Clouds:Scattered 002 Hf
Expected CloudBase > 7,200 ft AGL from Temp-Dew spread
CeilingNone
Temp22°C
Dew Point04°C (31% RH)
AAT19.6°C
QNH1010 hPa
Raw Report
KGPH 210035Z AUTO 17003KT 10SM SCT002 22/04 A2982 RMK AO2=

Extra information for KGPH:More info

Social comments